Time;durP1;ratioP1;P1;durP2;ratioP2;P2;SDS_P1;SDS_P2;PMS_P1;PMS_P2;Temp;Humidity;BMP_temperature;BMP_pressure;BME280_temperature;BME280_humidity;BME280_pressure;Samples;Min_cycle;Max_cycle;Signal;HPM_P1;HPM_P2
2023/12/31 18:31:43;;;;;;;7.93;4.70;;;3.50;99.90;;;;;;5036071;28;20647;-59
2023/12/31 18:34:09;;;;;;;12.73;6.37;;;3.40;99.90;;;;;;5036822;28;20939;-59
2023/12/31 18:36:37;;;;;;;9.77;6.00;;;3.40;99.90;;;;;;5040324;28;20896;-58
2023/12/31 18:39:03;;;;;;;7.03;5.10;;;3.40;99.90;;;;;;5045353;28;20290;-59
2023/12/31 18:41:28;;;;;;;7.67;5.70;;;3.50;99.90;;;;;;5033331;28;20996;-58
2023/12/31 18:43:54;;;;;;;9.93;6.50;;;3.40;99.90;;;;;;5035021;28;20200;-56
2023/12/31 18:46:21;;;;;;;7.03;4.83;;;3.50;99.90;;;;;;5039142;28;20180;-58
2023/12/31 18:48:47;;;;;;;15.40;10.80;;;3.50;99.90;;;;;;5033133;28;20179;-58
2023/12/31 18:51:14;;;;;;;10.00;6.20;;;3.50;99.90;;;;;;5032154;28;20511;-57
2023/12/31 18:53:40;;;;;;;10.53;7.50;;;3.50;99.90;;;;;;5032431;28;20222;-58
2023/12/31 18:56:11;;;;;;;8.40;5.23;;;3.50;99.90;;;;;;5030830;28;20464;-59
2023/12/31 18:58:38;;;;;;;12.43;7.50;;;3.50;99.90;;;;;;5033598;28;20177;-59
2023/12/31 19:01:03;;;;;;;15.83;7.33;;;3.50;99.90;;;;;;5031382;28;20457;-59
2023/12/31 19:03:29;;;;;;;16.53;8.37;;;3.50;99.90;;;;;;5035393;28;20553;-59
2023/12/31 19:05:55;;;;;;;15.07;8.43;;;3.50;99.90;;;;;;5034520;28;20171;-60
2023/12/31 19:08:20;;;;;;;16.43;9.33;;;3.50;99.90;;;;;;5035151;28;20179;-59
2023/12/31 19:10:46;;;;;;;13.93;8.10;;;3.50;99.90;;;;;;5034607;28;20203;-59
2023/12/31 19:13:12;;;;;;;3.97;3.50;;;3.50;99.90;;;;;;5032235;28;20183;-59
2023/12/31 19:15:37;;;;;;;3.40;3.03;;;3.40;99.90;;;;;;5031264;28;20864;-59
2023/12/31 19:18:04;;;;;;;7.50;4.60;;;3.40;99.90;;;;;;5037271;28;20175;-59
2023/12/31 19:20:30;;;;;;;6.67;4.30;;;3.40;99.90;;;;;;5026934;28;20199;-59
2023/12/31 19:22:55;;;;;;;7.33;5.13;;;3.40;99.90;;;;;;5034606;28;20494;-59
2023/12/31 19:25:22;;;;;;;8.50;4.80;;;3.40;99.90;;;;;;5036322;28;20675;-59
2023/12/31 19:27:49;;;;;;;9.70;4.47;;;3.30;99.90;;;;;;5034126;28;20654;-59
2023/12/31 19:30:18;;;;;;;4.73;3.40;;;3.30;99.90;;;;;;5024397;28;21006;-58
2023/12/31 19:32:45;;;;;;;6.10;4.50;;;3.30;99.90;;;;;;5036668;28;20426;-59
2023/12/31 19:35:11;;;;;;;27.47;14.10;;;3.30;99.90;;;;;;5035694;28;20435;-60
2023/12/31 19:37:37;;;;;;;11.40;6.33;;;3.30;99.90;;;;;;5037380;28;20423;-59
2023/12/31 19:40:05;;;;;;;8.60;5.97;;;3.30;99.90;;;;;;5036629;28;20532;-58
2023/12/31 19:42:31;;;;;;;7.60;4.17;;;3.30;99.90;;;;;;5026888;28;20441;-59
2023/12/31 19:44:56;;;;;;;7.70;4.33;;;3.30;99.90;;;;;;5022097;28;20430;-60
2023/12/31 19:47:22;;;;;;;11.57;6.30;;;3.30;99.90;;;;;;5022319;28;20891;-59
2023/12/31 19:49:48;;;;;;;6.53;3.50;;;3.20;99.90;;;;;;5020710;28;20268;-59
2023/12/31 19:52:13;;;;;;;6.10;4.40;;;3.20;99.90;;;;;;5022919;28;20590;-60
2023/12/31 19:54:41;;;;;;;11.20;6.10;;;3.20;99.90;;;;;;5023992;28;20859;-59
2023/12/31 19:57:07;;;;;;;9.23;5.87;;;3.20;99.90;;;;;;5021595;28;20175;-60
2023/12/31 19:59:32;;;;;;;13.43;6.77;;;3.20;99.90;;;;;;5022054;28;21232;-60
2023/12/31 20:01:58;;;;;;;10.97;5.80;;;3.20;99.90;;;;;;5015521;28;20199;-60
2023/12/31 20:04:24;;;;;;;9.17;5.10;;;3.20;99.90;;;;;;5019711;28;20187;-59
2023/12/31 20:06:52;;;;;;;6.60;4.53;;;3.10;99.90;;;;;;5019702;28;20176;-59
2023/12/31 20:09:21;;;;;;;33.00;15.80;;;3.20;99.90;;;;;;5020059;28;20196;-59
2023/12/31 20:11:47;;;;;;;76.93;39.77;;;3.20;99.90;;;;;;5019856;28;20442;-59
2023/12/31 20:14:14;;;;;;;26.27;14.63;;;3.20;99.90;;;;;;5018057;28;20592;-60
2023/12/31 20:16:40;;;;;;;28.60;17.37;;;3.20;99.90;;;;;;5018579;28;20438;-60
2023/12/31 20:19:06;;;;;;;13.10;8.07;;;3.20;99.90;;;;;;5014741;28;21071;-60
2023/12/31 20:21:31;;;;;;;13.53;7.23;;;3.30;99.90;;;;;;5015523;28;20533;-60
2023/12/31 20:24:01;;;;;;;12.40;7.50;;;3.20;99.90;;;;;;5016673;28;20587;-59
2023/12/31 20:26:30;;;;;;;22.83;12.40;;;3.20;99.90;;;;;;5020101;28;20225;-61
2023/12/31 20:28:56;;;;;;;19.37;10.37;;;3.30;99.90;;;;;;5021447;28;20613;-60
2023/12/31 20:31:22;;;;;;;18.17;10.87;;;3.30;99.90;;;;;;5020016;28;21261;-59
2023/12/31 20:33:47;;;;;;;19.70;11.47;;;3.30;99.90;;;;;;5020051;28;20203;-59
2023/12/31 20:36:13;;;;;;;12.10;7.50;;;3.30;99.90;;;;;;5021751;28;20195;-60
2023/12/31 20:38:39;;;;;;;11.03;7.53;;;3.30;99.90;;;;;;5020091;28;20183;-59
2023/12/31 20:41:09;;;;;;;24.00;11.17;;;3.30;99.90;;;;;;5020863;28;20225;-59
2023/12/31 20:43:34;;;;;;;13.67;7.30;;;3.30;99.90;;;;;;5019426;28;20184;-61
2023/12/31 20:46:00;;;;;;;6.37;3.77;;;3.30;99.90;;;;;;5019764;28;20999;-61
2023/12/31 20:48:26;;;;;;;9.13;5.20;;;3.30;99.90;;;;;;5018918;28;20239;-60
2023/12/31 20:50:51;;;;;;;17.93;7.90;;;3.30;99.90;;;;;;5024872;28;20204;-59
2023/12/31 20:53:17;;;;;;;8.17;4.33;;;3.30;99.90;;;;;;5018955;28;20255;-60
2023/12/31 20:55:47;;;;;;;12.40;6.67;;;3.30;99.90;;;;;;5019944;28;20187;-62
2023/12/31 20:58:14;;;;;;;17.83;8.93;;;3.30;99.90;;;;;;5016787;28;20449;-60
2023/12/31 21:00:39;;;;;;;16.30;9.43;;;3.30;99.90;;;;;;5016786;28;20454;-60
2023/12/31 21:03:05;;;;;;;9.37;5.83;;;3.30;99.90;;;;;;5022201;28;21236;-60
2023/12/31 21:05:30;;;;;;;5.20;4.00;;;3.30;99.90;;;;;;5016612;28;20180;-59
2023/12/31 21:07:56;;;;;;;11.30;6.83;;;3.30;99.90;;;;;;5015605;28;20231;-60
2023/12/31 21:10:22;;;;;;;12.80;7.60;;;3.30;99.90;;;;;;5020526;28;20204;-60
2023/12/31 21:12:47;;;;;;;14.60;7.80;;;3.20;99.90;;;;;;5016955;28;20650;-60
2023/12/31 21:15:13;;;;;;;15.60;8.77;;;3.20;99.90;;;;;;5020538;28;20172;-61
2023/12/31 21:17:38;;;;;;;9.60;6.10;;;3.20;99.90;;;;;;5020300;28;20262;-60
2023/12/31 21:20:05;;;;;;;7.80;4.87;;;3.20;99.90;;;;;;5019233;28;20198;-60
2023/12/31 21:22:30;;;;;;;9.30;4.60;;;3.20;99.90;;;;;;5018298;28;20180;-60
2023/12/31 21:24:56;;;;;;;8.10;5.10;;;3.20;99.90;;;;;;5024559;28;20418;-59
2023/12/31 21:27:21;;;;;;;5.23;4.00;;;3.20;99.90;;;;;;5012142;28;20168;-60
2023/12/31 21:29:47;;;;;;;24.13;12.43;;;3.20;99.90;;;;;;5022012;28;20258;-60
2023/12/31 21:32:12;;;;;;;7.63;5.73;;;3.20;99.90;;;;;;5024274;28;20176;-60
2023/12/31 21:34:38;;;;;;;12.83;7.00;;;3.20;99.90;;;;;;5021664;28;20553;-59
2023/12/31 21:37:04;;;;;;;9.10;5.23;;;3.20;99.90;;;;;;5016870;28;20207;-61
2023/12/31 21:39:30;;;;;;;6.90;4.67;;;3.20;99.90;;;;;;5021069;28;20216;-60
2023/12/31 21:41:56;;;;;;;756.13;574.93;;;3.10;99.90;;;;;;5019010;28;20215;-60
2023/12/31 21:44:22;;;;;;;20.80;13.03;;;3.10;99.90;;;;;;5013493;28;20466;-59
2023/12/31 21:46:47;;;;;;;13.87;7.87;;;3.10;99.90;;;;;;5019072;28;20173;-60
2023/12/31 21:49:13;;;;;;;4.87;3.40;;;3.00;99.90;;;;;;5016524;28;20731;-59
2023/12/31 21:51:39;;;;;;;6.07;3.20;;;3.00;99.90;;;;;;5010717;28;20297;-59
2023/12/31 21:54:04;;;;;;;4.47;3.33;;;3.00;99.90;;;;;;5010647;28;20219;-60
2023/12/31 21:56:30;;;;;;;9.40;6.63;;;3.00;99.90;;;;;;5015804;28;20553;-60
2023/12/31 21:58:56;;;;;;;6.37;3.00;;;2.90;99.90;;;;;;5017548;28;20176;-59
2023/12/31 22:01:21;;;;;;;5.07;2.90;;;2.90;99.90;;;;;;5011225;28;20437;-61
2023/12/31 22:03:47;;;;;;;3.10;2.83;;;2.90;99.90;;;;;;5020354;28;20690;-59
2023/12/31 22:06:13;;;;;;;5.83;3.77;;;2.90;99.90;;;;;;5023663;28;20187;-60
2023/12/31 22:08:40;;;;;;;19.80;11.13;;;2.90;99.90;;;;;;5017963;28;20204;-61
2023/12/31 22:11:11;;;;;;;20.90;11.37;;;2.90;99.90;;;;;;5013472;28;20230;-59
2023/12/31 22:13:37;;;;;;;12.67;7.97;;;2.80;99.90;;;;;;5021627;28;20972;-60
2023/12/31 22:16:04;;;;;;;10.30;6.17;;;2.80;99.90;;;;;;5018784;28;20855;-60
2023/12/31 22:18:30;;;;;;;8.57;6.00;;;2.80;99.90;;;;;;5021920;28;20461;-60
2023/12/31 22:20:55;;;;;;;12.33;6.30;;;2.80;99.90;;;;;;5022084;28;20869;-61
2023/12/31 22:23:23;;;;;;;9.30;6.00;;;2.80;99.90;;;;;;5014750;28;20195;-59
2023/12/31 22:25:48;;;;;;;9.83;5.90;;;2.70;99.90;;;;;;5017153;28;20198;-61
2023/12/31 22:28:14;;;;;;;10.60;6.30;;;2.70;99.90;;;;;;5019296;28;20529;-60
2023/12/31 22:30:40;;;;;;;8.70;5.00;;;2.70;99.90;;;;;;5020072;28;20206;-61
2023/12/31 22:33:05;;;;;;;9.50;6.00;;;2.80;99.90;;;;;;5017360;28;20239;-60
2023/12/31 22:35:31;;;;;;;14.33;6.90;;;2.80;99.90;;;;;;5019957;28;20179;-59
2023/12/31 22:37:57;;;;;;;10.33;6.07;;;2.80;99.90;;;;;;5015286;28;20236;-59
2023/12/31 22:40:23;;;;;;;10.40;6.00;;;2.80;99.90;;;;;;5019962;28;20225;-60
2023/12/31 22:42:49;;;;;;;10.87;6.10;;;2.80;99.90;;;;;;5022210;28;20175;-59
2023/12/31 22:45:14;;;;;;;77.17;39.03;;;2.80;99.90;;;;;;5016964;28;20652;-60
2023/12/31 22:47:43;;;;;;;13.33;8.30;;;2.80;99.90;;;;;;5021625;28;20184;-58
2023/12/31 22:50:09;;;;;;;19.80;9.73;;;2.80;99.90;;;;;;5018138;28;20200;-61
2023/12/31 22:52:34;;;;;;;38.13;15.63;;;2.80;99.90;;;;;;5019275;28;20466;-58
2023/12/31 22:55:00;;;;;;;19.50;10.80;;;2.80;99.90;;;;;;5016100;28;20462;-58
2023/12/31 22:57:26;;;;;;;59.03;28.43;;;2.80;99.90;;;;;;5016255;28;20238;-59
2023/12/31 22:59:51;;;;;;;44.13;21.20;;;2.80;99.90;;;;;;5022622;28;20201;-60
2023/12/31 23:02:17;;;;;;;158.20;81.67;;;2.80;99.90;;;;;;5011287;28;20184;-59
2023/12/31 23:04:42;;;;;;;355.17;178.77;;;2.80;99.90;;;;;;5019482;28;20183;-59
2023/12/31 23:07:08;;;;;;;472.40;248.30;;;2.90;99.90;;;;;;5015625;28;20552;-59
2023/12/31 23:09:33;;;;;;;410.27;191.57;;;2.90;99.90;;;;;;5012976;28;20291;-59
2023/12/31 23:11:59;;;;;;;416.33;197.13;;;2.90;99.90;;;;;;5018591;28;20543;-61
2023/12/31 23:14:25;;;;;;;569.67;336.20;;;2.90;99.90;;;;;;5020619;28;20185;-59
2023/12/31 23:16:50;;;;;;;664.37;420.37;;;2.90;99.90;;;;;;5021542;28;20184;-60
2023/12/31 23:19:16;;;;;;;488.00;269.53;;;2.90;99.90;;;;;;5017236;28;20229;-61
2023/12/31 23:21:42;;;;;;;473.33;251.53;;;2.90;99.90;;;;;;5024284;28;20700;-60
2023/12/31 23:24:08;;;;;;;287.03;136.00;;;2.90;99.90;;;;;;5016680;28;20186;-60
2023/12/31 23:26:37;;;;;;;239.73;118.27;;;2.90;99.90;;;;;;5014871;28;20187;-59
2023/12/31 23:29:03;;;;;;;152.77;76.57;;;2.90;99.90;;;;;;5017211;28;20512;-59
2023/12/31 23:31:29;;;;;;;211.83;97.50;;;2.90;99.90;;;;;;5010850;28;20519;-58
2023/12/31 23:33:55;;;;;;;136.53;64.00;;;2.90;99.90;;;;;;5015785;28;20898;-59
2023/12/31 23:36:21;;;;;;;169.07;82.00;;;2.90;99.90;;;;;;5014799;28;20184;-58
2023/12/31 23:38:46;;;;;;;165.73;75.93;;;2.90;99.90;;;;;;5022290;28;20567;-59
2023/12/31 23:41:12;;;;;;;150.50;71.87;;;2.90;99.90;;;;;;5025578;28;20234;-59
2023/12/31 23:43:38;;;;;;;153.33;74.63;;;3.00;99.90;;;;;;5024631;28;20224;-61
2023/12/31 23:46:04;;;;;;;92.63;45.47;;;3.00;99.90;;;;;;5023502;28;20216;-59
2023/12/31 23:48:29;;;;;;;110.30;51.80;;;3.00;99.90;;;;;;5026961;28;20474;-59
2023/12/31 23:50:55;;;;;;;99.17;46.57;;;3.00;99.90;;;;;;5020172;28;20203;-59
2023/12/31 23:53:21;;;;;;;110.80;51.60;;;3.00;99.90;;;;;;5021097;28;20743;-58
2023/12/31 23:55:46;;;;;;;128.93;58.23;;;3.00;99.90;;;;;;5028574;28;20660;-58
2023/12/31 23:58:12;;;;;;;114.40;52.73;;;3.10;99.90;;;;;;5023020;28;20172;-60
